sensor_id;sensor_type;location;lat;lon;timestamp;P1;durP1;ratioP1;P2;durP2;ratioP2
34248;SDS011;20508;50.834;3.160;2022-11-14T00:00:31;24.50;;;21.90;;
34248;SDS011;20508;50.834;3.160;2022-11-14T00:02:58;25.75;;;22.50;;
34248;SDS011;20508;50.834;3.160;2022-11-14T00:05:25;26.05;;;21.60;;
34248;SDS011;20508;50.834;3.160;2022-11-14T00:07:51;24.55;;;21.98;;
34248;SDS011;20508;50.834;3.160;2022-11-14T00:10:18;25.13;;;22.42;;
34248;SDS011;20508;50.834;3.160;2022-11-14T00:12:44;25.58;;;22.63;;
34248;SDS011;20508;50.834;3.160;2022-11-14T00:15:10;24.75;;;22.08;;
34248;SDS011;20508;50.834;3.160;2022-11-14T00:17:37;26.13;;;23.33;;
34248;SDS011;20508;50.834;3.160;2022-11-14T00:20:03;26.40;;;23.58;;
34248;SDS011;20508;50.834;3.160;2022-11-14T00:22:31;24.95;;;22.35;;
34248;SDS011;20508;50.834;3.160;2022-11-14T00:24:56;26.50;;;22.52;;
34248;SDS011;20508;50.834;3.160;2022-11-14T00:27:23;25.52;;;22.80;;
34248;SDS011;20508;50.834;3.160;2022-11-14T00:29:49;26.63;;;22.52;;
34248;SDS011;20508;50.834;3.160;2022-11-14T00:32:14;25.55;;;22.23;;
34248;SDS011;20508;50.834;3.160;2022-11-14T00:34:40;24.95;;;22.05;;
34248;SDS011;20508;50.834;3.160;2022-11-14T00:37:06;26.27;;;22.30;;
34248;SDS011;20508;50.834;3.160;2022-11-14T00:39:32;26.17;;;22.70;;
34248;SDS011;20508;50.834;3.160;2022-11-14T00:41:58;25.70;;;22.40;;
34248;SDS011;20508;50.834;3.160;2022-11-14T00:44:24;24.83;;;22.02;;
34248;SDS011;20508;50.834;3.160;2022-11-14T00:46:50;25.05;;;22.30;;
34248;SDS011;20508;50.834;3.160;2022-11-14T00:49:16;24.90;;;22.23;;
34248;SDS011;20508;50.834;3.160;2022-11-14T00:51:41;24.55;;;21.95;;
34248;SDS011;20508;50.834;3.160;2022-11-14T00:54:07;25.95;;;22.88;;
34248;SDS011;20508;50.834;3.160;2022-11-14T00:56:33;25.05;;;21.73;;
34248;SDS011;20508;50.834;3.160;2022-11-14T00:58:59;25.63;;;22.63;;
34248;SDS011;20508;50.834;3.160;2022-11-14T01:01:25;23.67;;;21.20;;
34248;SDS011;20508;50.834;3.160;2022-11-14T01:03:51;24.20;;;21.67;;
34248;SDS011;20508;50.834;3.160;2022-11-14T01:06:17;24.80;;;22.20;;
34248;SDS011;20508;50.834;3.160;2022-11-14T01:08:43;24.30;;;21.80;;
34248;SDS011;20508;50.834;3.160;2022-11-14T01:11:10;21.95;;;19.55;;
34248;SDS011;20508;50.834;3.160;2022-11-14T01:13:41;23.63;;;21.08;;
34248;SDS011;20508;50.834;3.160;2022-11-14T01:16:08;22.88;;;20.48;;
34248;SDS011;20508;50.834;3.160;2022-11-14T01:18:34;23.55;;;21.10;;
34248;SDS011;20508;50.834;3.160;2022-11-14T01:21:02;22.38;;;20.17;;
34248;SDS011;20508;50.834;3.160;2022-11-14T01:23:30;22.42;;;20.13;;
34248;SDS011;20508;50.834;3.160;2022-11-14T01:26:00;24.38;;;21.83;;
34248;SDS011;20508;50.834;3.160;2022-11-14T01:28:37;22.65;;;20.25;;
34248;SDS011;20508;50.834;3.160;2022-11-14T01:31:19;24.45;;;21.85;;
34248;SDS011;20508;50.834;3.160;2022-11-14T01:33:47;23.42;;;21.05;;
34248;SDS011;20508;50.834;3.160;2022-11-14T01:36:13;24.30;;;21.75;;
34248;SDS011;20508;50.834;3.160;2022-11-14T01:38:39;25.05;;;22.20;;
34248;SDS011;20508;50.834;3.160;2022-11-14T01:41:05;23.92;;;21.50;;
34248;SDS011;20508;50.834;3.160;2022-11-14T01:43:37;25.20;;;22.50;;
34248;SDS011;20508;50.834;3.160;2022-11-14T01:46:26;23.45;;;20.98;;
34248;SDS011;20508;50.834;3.160;2022-11-14T01:49:00;24.38;;;21.88;;
34248;SDS011;20508;50.834;3.160;2022-11-14T01:53:55;24.48;;;21.98;;
34248;SDS011;20508;50.834;3.160;2022-11-14T01:56:27;22.85;;;20.48;;
34248;SDS011;20508;50.834;3.160;2022-11-14T01:59:07;23.65;;;21.27;;
34248;SDS011;20508;50.834;3.160;2022-11-14T02:01:46;25.13;;;22.55;;
34248;SDS011;20508;50.834;3.160;2022-11-14T02:04:16;25.70;;;23.00;;
34248;SDS011;20508;50.834;3.160;2022-11-14T02:06:45;24.65;;;22.15;;
34248;SDS011;20508;50.834;3.160;2022-11-14T02:09:11;23.85;;;21.35;;
34248;SDS011;20508;50.834;3.160;2022-11-14T02:11:38;24.00;;;21.50;;
34248;SDS011;20508;50.834;3.160;2022-11-14T02:14:07;25.00;;;22.30;;
34248;SDS011;20508;50.834;3.160;2022-11-14T02:16:34;24.95;;;22.38;;
34248;SDS011;20508;50.834;3.160;2022-11-14T02:19:00;23.98;;;21.65;;
34248;SDS011;20508;50.834;3.160;2022-11-14T02:21:26;24.60;;;22.00;;
34248;SDS011;20508;50.834;3.160;2022-11-14T02:23:52;24.80;;;22.05;;
34248;SDS011;20508;50.834;3.160;2022-11-14T02:26:18;24.73;;;22.17;;
34248;SDS011;20508;50.834;3.160;2022-11-14T02:28:45;23.88;;;21.35;;
34248;SDS011;20508;50.834;3.160;2022-11-14T02:31:12;24.58;;;22.00;;
34248;SDS011;20508;50.834;3.160;2022-11-14T02:33:38;24.45;;;21.92;;
34248;SDS011;20508;50.834;3.160;2022-11-14T02:36:04;24.85;;;22.27;;
34248;SDS011;20508;50.834;3.160;2022-11-14T02:38:30;25.50;;;22.75;;
34248;SDS011;20508;50.834;3.160;2022-11-14T02:40:58;25.35;;;22.10;;
34248;SDS011;20508;50.834;3.160;2022-11-14T02:43:24;24.95;;;22.13;;
34248;SDS011;20508;50.834;3.160;2022-11-14T02:45:51;24.05;;;21.63;;
34248;SDS011;20508;50.834;3.160;2022-11-14T02:48:17;24.33;;;21.90;;
34248;SDS011;20508;50.834;3.160;2022-11-14T02:50:43;25.25;;;22.75;;
34248;SDS011;20508;50.834;3.160;2022-11-14T02:53:09;24.45;;;21.85;;
34248;SDS011;20508;50.834;3.160;2022-11-14T02:55:35;24.38;;;21.85;;
34248;SDS011;20508;50.834;3.160;2022-11-14T02:58:01;24.77;;;22.08;;
34248;SDS011;20508;50.834;3.160;2022-11-14T03:00:27;24.27;;;21.65;;
34248;SDS011;20508;50.834;3.160;2022-11-14T03:02:52;23.73;;;21.27;;
34248;SDS011;20508;50.834;3.160;2022-11-14T03:05:18;24.02;;;21.52;;
34248;SDS011;20508;50.834;3.160;2022-11-14T03:07:44;24.65;;;22.05;;
34248;SDS011;20508;50.834;3.160;2022-11-14T03:10:10;24.85;;;21.98;;
34248;SDS011;20508;50.834;3.160;2022-11-14T03:12:36;23.67;;;21.13;;
34248;SDS011;20508;50.834;3.160;2022-11-14T03:15:02;22.45;;;20.23;;
34248;SDS011;20508;50.834;3.160;2022-11-14T03:17:30;23.02;;;20.63;;
34248;SDS011;20508;50.834;3.160;2022-11-14T03:19:56;24.27;;;21.80;;
34248;SDS011;20508;50.834;3.160;2022-11-14T03:22:22;22.65;;;20.38;;
34248;SDS011;20508;50.834;3.160;2022-11-14T03:24:48;22.40;;;20.20;;
34248;SDS011;20508;50.834;3.160;2022-11-14T03:27:14;22.33;;;20.02;;
34248;SDS011;20508;50.834;3.160;2022-11-14T03:29:39;21.92;;;19.67;;
34248;SDS011;20508;50.834;3.160;2022-11-14T03:32:05;22.75;;;20.42;;
34248;SDS011;20508;50.834;3.160;2022-11-14T03:34:31;21.10;;;19.10;;
34248;SDS011;20508;50.834;3.160;2022-11-14T03:36:57;20.17;;;18.35;;
34248;SDS011;20508;50.834;3.160;2022-11-14T03:39:24;20.08;;;18.08;;
34248;SDS011;20508;50.834;3.160;2022-11-14T03:41:51;19.45;;;17.65;;
34248;SDS011;20508;50.834;3.160;2022-11-14T03:44:16;19.38;;;17.65;;
34248;SDS011;20508;50.834;3.160;2022-11-14T03:46:43;20.02;;;17.98;;
34248;SDS011;20508;50.834;3.160;2022-11-14T03:49:08;20.08;;;18.10;;
34248;SDS011;20508;50.834;3.160;2022-11-14T03:51:34;18.40;;;16.73;;
34248;SDS011;20508;50.834;3.160;2022-11-14T03:54:00;19.48;;;17.58;;
34248;SDS011;20508;50.834;3.160;2022-11-14T03:56:26;19.27;;;17.45;;
34248;SDS011;20508;50.834;3.160;2022-11-14T03:58:55;18.50;;;16.65;;
34248;SDS011;20508;50.834;3.160;2022-11-14T04:01:20;18.25;;;16.58;;
34248;SDS011;20508;50.834;3.160;2022-11-14T04:03:46;18.23;;;16.45;;
34248;SDS011;20508;50.834;3.160;2022-11-14T04:06:12;18.60;;;16.35;;
34248;SDS011;20508;50.834;3.160;2022-11-14T04:08:40;18.02;;;16.27;;
34248;SDS011;20508;50.834;3.160;2022-11-14T04:11:06;17.05;;;15.60;;
34248;SDS011;20508;50.834;3.160;2022-11-14T04:13:32;16.95;;;15.35;;
34248;SDS011;20508;50.834;3.160;2022-11-14T04:15:57;17.98;;;16.35;;
34248;SDS011;20508;50.834;3.160;2022-11-14T04:18:24;16.35;;;14.95;;
34248;SDS011;20508;50.834;3.160;2022-11-14T04:20:50;16.10;;;14.57;;
34248;SDS011;20508;50.834;3.160;2022-11-14T04:23:17;15.35;;;14.13;;
34248;SDS011;20508;50.834;3.160;2022-11-14T04:25:43;16.33;;;14.75;;
34248;SDS011;20508;50.834;3.160;2022-11-14T04:28:11;17.23;;;15.50;;
34248;SDS011;20508;50.834;3.160;2022-11-14T04:30:37;16.25;;;14.80;;
34248;SDS011;20508;50.834;3.160;2022-11-14T04:33:03;15.77;;;14.30;;
34248;SDS011;20508;50.834;3.160;2022-11-14T04:35:29;14.82;;;13.52;;
34248;SDS011;20508;50.834;3.160;2022-11-14T04:37:56;14.80;;;13.60;;
34248;SDS011;20508;50.834;3.160;2022-11-14T04:40:22;14.40;;;13.20;;
34248;SDS011;20508;50.834;3.160;2022-11-14T04:42:48;13.80;;;12.68;;
34248;SDS011;20508;50.834;3.160;2022-11-14T04:45:14;14.30;;;13.00;;
34248;SDS011;20508;50.834;3.160;2022-11-14T04:47:41;13.75;;;12.65;;
34248;SDS011;20508;50.834;3.160;2022-11-14T04:50:07;13.70;;;12.65;;
34248;SDS011;20508;50.834;3.160;2022-11-14T04:52:33;13.93;;;12.70;;
34248;SDS011;20508;50.834;3.160;2022-11-14T04:54:59;13.85;;;12.70;;
34248;SDS011;20508;50.834;3.160;2022-11-14T04:57:25;13.73;;;12.52;;
34248;SDS011;20508;50.834;3.160;2022-11-14T04:59:51;13.02;;;12.02;;
34248;SDS011;20508;50.834;3.160;2022-11-14T05:02:17;13.32;;;12.23;;
34248;SDS011;20508;50.834;3.160;2022-11-14T05:04:43;12.52;;;11.52;;
34248;SDS011;20508;50.834;3.160;2022-11-14T05:07:11;12.82;;;11.80;;
34248;SDS011;20508;50.834;3.160;2022-11-14T05:09:37;13.07;;;11.93;;
34248;SDS011;20508;50.834;3.160;2022-11-14T05:12:04;12.18;;;11.27;;
34248;SDS011;20508;50.834;3.160;2022-11-14T05:14:30;11.88;;;10.88;;
34248;SDS011;20508;50.834;3.160;2022-11-14T05:16:56;11.55;;;10.65;;
34248;SDS011;20508;50.834;3.160;2022-11-14T05:19:23;11.30;;;10.40;;
34248;SDS011;20508;50.834;3.160;2022-11-14T05:21:48;12.32;;;11.23;;
34248;SDS011;20508;50.834;3.160;2022-11-14T05:24:14;12.35;;;11.35;;
34248;SDS011;20508;50.834;3.160;2022-11-14T05:26:40;11.82;;;10.88;;
34248;SDS011;20508;50.834;3.160;2022-11-14T05:29:06;11.43;;;10.52;;
34248;SDS011;20508;50.834;3.160;2022-11-14T05:31:33;11.02;;;10.13;;
34248;SDS011;20508;50.834;3.160;2022-11-14T05:33:59;11.05;;;9.95;;
34248;SDS011;20508;50.834;3.160;2022-11-14T05:36:25;10.90;;;10.00;;
34248;SDS011;20508;50.834;3.160;2022-11-14T05:38:50;11.38;;;10.38;;
34248;SDS011;20508;50.834;3.160;2022-11-14T05:41:16;10.30;;;9.50;;
34248;SDS011;20508;50.834;3.160;2022-11-14T05:43:47;10.57;;;9.77;;
34248;SDS011;20508;50.834;3.160;2022-11-14T05:46:13;10.63;;;9.63;;
34248;SDS011;20508;50.834;3.160;2022-11-14T05:48:40;10.30;;;9.50;;
34248;SDS011;20508;50.834;3.160;2022-11-14T05:51:08;10.60;;;9.70;;
34248;SDS011;20508;50.834;3.160;2022-11-14T05:53:36;10.23;;;9.30;;
34248;SDS011;20508;50.834;3.160;2022-11-14T05:56:02;9.45;;;8.75;;
34248;SDS011;20508;50.834;3.160;2022-11-14T05:58:30;9.68;;;8.88;;
34248;SDS011;20508;50.834;3.160;2022-11-14T06:01:06;9.88;;;9.07;;
34248;SDS011;20508;50.834;3.160;2022-11-14T06:03:41;10.18;;;9.38;;
34248;SDS011;20508;50.834;3.160;2022-11-14T06:06:10;9.60;;;8.90;;
34248;SDS011;20508;50.834;3.160;2022-11-14T06:08:37;10.20;;;9.40;;
34248;SDS011;20508;50.834;3.160;2022-11-14T06:11:07;9.02;;;8.32;;
34248;SDS011;20508;50.834;3.160;2022-11-14T06:13:38;9.35;;;8.55;;
34248;SDS011;20508;50.834;3.160;2022-11-14T06:16:05;9.65;;;8.88;;
34248;SDS011;20508;50.834;3.160;2022-11-14T06:18:34;9.52;;;8.82;;
34248;SDS011;20508;50.834;3.160;2022-11-14T06:21:01;9.43;;;8.63;;
34248;SDS011;20508;50.834;3.160;2022-11-14T06:23:29;9.88;;;9.07;;
34248;SDS011;20508;50.834;3.160;2022-11-14T06:26:02;10.25;;;9.40;;
34248;SDS011;20508;50.834;3.160;2022-11-14T06:28:30;10.98;;;10.07;;
34248;SDS011;20508;50.834;3.160;2022-11-14T06:31:00;11.15;;;10.15;;
34248;SDS011;20508;50.834;3.160;2022-11-14T06:33:27;11.18;;;10.18;;
34248;SDS011;20508;50.834;3.160;2022-11-14T06:35:57;11.00;;;10.07;;
34248;SDS011;20508;50.834;3.160;2022-11-14T06:38:24;10.65;;;9.65;;
34248;SDS011;20508;50.834;3.160;2022-11-14T06:40:51;10.55;;;9.55;;
34248;SDS011;20508;50.834;3.160;2022-11-14T06:43:16;9.98;;;9.18;;
34248;SDS011;20508;50.834;3.160;2022-11-14T06:45:42;10.70;;;9.70;;
34248;SDS011;20508;50.834;3.160;2022-11-14T06:48:08;10.50;;;9.60;;
34248;SDS011;20508;50.834;3.160;2022-11-14T06:50:33;8.95;;;8.15;;
34248;SDS011;20508;50.834;3.160;2022-11-14T06:52:59;9.52;;;8.73;;
34248;SDS011;20508;50.834;3.160;2022-11-14T06:55:25;9.45;;;8.68;;
34248;SDS011;20508;50.834;3.160;2022-11-14T06:57:52;9.10;;;8.30;;
34248;SDS011;20508;50.834;3.160;2022-11-14T07:00:19;10.45;;;9.55;;
34248;SDS011;20508;50.834;3.160;2022-11-14T07:02:47;8.90;;;8.20;;
34248;SDS011;20508;50.834;3.160;2022-11-14T07:05:12;9.60;;;8.60;;
34248;SDS011;20508;50.834;3.160;2022-11-14T07:07:39;9.15;;;8.35;;
34248;SDS011;20508;50.834;3.160;2022-11-14T07:10:05;8.68;;;7.97;;
34248;SDS011;20508;50.834;3.160;2022-11-14T07:12:31;8.48;;;7.85;;
34248;SDS011;20508;50.834;3.160;2022-11-14T07:14:57;9.07;;;8.18;;
34248;SDS011;20508;50.834;3.160;2022-11-14T07:17:23;9.60;;;8.70;;
34248;SDS011;20508;50.834;3.160;2022-11-14T07:19:49;8.82;;;8.10;;
34248;SDS011;20508;50.834;3.160;2022-11-14T07:22:15;8.95;;;8.15;;
34248;SDS011;20508;50.834;3.160;2022-11-14T07:24:41;8.35;;;7.70;;
34248;SDS011;20508;50.834;3.160;2022-11-14T07:27:07;8.65;;;8.05;;
34248;SDS011;20508;50.834;3.160;2022-11-14T07:29:35;9.18;;;8.32;;
34248;SDS011;20508;50.834;3.160;2022-11-14T07:32:01;8.10;;;7.35;;
34248;SDS011;20508;50.834;3.160;2022-11-14T07:34:27;8.77;;;8.07;;
34248;SDS011;20508;50.834;3.160;2022-11-14T07:36:53;8.52;;;7.82;;
34248;SDS011;20508;50.834;3.160;2022-11-14T07:39:20;8.57;;;7.80;;
34248;SDS011;20508;50.834;3.160;2022-11-14T07:41:46;8.85;;;8.05;;
34248;SDS011;20508;50.834;3.160;2022-11-14T07:44:11;9.30;;;8.40;;
34248;SDS011;20508;50.834;3.160;2022-11-14T07:46:37;8.55;;;7.85;;
34248;SDS011;20508;50.834;3.160;2022-11-14T07:49:03;9.35;;;8.45;;
34248;SDS011;20508;50.834;3.160;2022-11-14T07:51:29;8.88;;;8.10;;
34248;SDS011;20508;50.834;3.160;2022-11-14T07:53:54;10.80;;;9.20;;
34248;SDS011;20508;50.834;3.160;2022-11-14T07:56:20;10.13;;;9.23;;
34248;SDS011;20508;50.834;3.160;2022-11-14T07:58:46;9.45;;;8.65;;
34248;SDS011;20508;50.834;3.160;2022-11-14T08:01:12;9.38;;;8.57;;
34248;SDS011;20508;50.834;3.160;2022-11-14T08:03:40;9.40;;;8.60;;
34248;SDS011;20508;50.834;3.160;2022-11-14T08:06:07;9.07;;;8.27;;
34248;SDS011;20508;50.834;3.160;2022-11-14T08:08:35;9.15;;;8.35;;
34248;SDS011;20508;50.834;3.160;2022-11-14T08:11:01;8.75;;;7.95;;
34248;SDS011;20508;50.834;3.160;2022-11-14T08:13:27;9.00;;;7.60;;
34248;SDS011;20508;50.834;3.160;2022-11-14T08:15:54;8.57;;;7.80;;
34248;SDS011;20508;50.834;3.160;2022-11-14T08:18:20;8.05;;;7.35;;
34248;SDS011;20508;50.834;3.160;2022-11-14T08:20:46;8.50;;;7.75;;
34248;SDS011;20508;50.834;3.160;2022-11-14T08:23:11;8.93;;;8.13;;
34248;SDS011;20508;50.834;3.160;2022-11-14T08:25:38;8.93;;;7.90;;
34248;SDS011;20508;50.834;3.160;2022-11-14T08:28:05;8.27;;;7.57;;
34248;SDS011;20508;50.834;3.160;2022-11-14T08:30:31;8.75;;;7.95;;
34248;SDS011;20508;50.834;3.160;2022-11-14T08:32:59;7.38;;;6.65;;
34248;SDS011;20508;50.834;3.160;2022-11-14T08:35:26;7.50;;;6.90;;
34248;SDS011;20508;50.834;3.160;2022-11-14T08:37:52;7.88;;;7.18;;
34248;SDS011;20508;50.834;3.160;2022-11-14T08:40:18;7.55;;;6.85;;
34248;SDS011;20508;50.834;3.160;2022-11-14T08:42:44;7.75;;;7.10;;
34248;SDS011;20508;50.834;3.160;2022-11-14T08:45:09;8.05;;;7.35;;
34248;SDS011;20508;50.834;3.160;2022-11-14T08:47:36;7.53;;;6.90;;
34248;SDS011;20508;50.834;3.160;2022-11-14T08:50:02;8.10;;;7.40;;
34248;SDS011;20508;50.834;3.160;2022-11-14T08:52:28;7.45;;;6.80;;
34248;SDS011;20508;50.834;3.160;2022-11-14T08:54:54;8.23;;;7.32;;
34248;SDS011;20508;50.834;3.160;2022-11-14T08:57:20;7.75;;;7.05;;
34248;SDS011;20508;50.834;3.160;2022-11-14T08:59:45;7.95;;;7.25;;
34248;SDS011;20508;50.834;3.160;2022-11-14T09:02:12;7.40;;;6.80;;
34248;SDS011;20508;50.834;3.160;2022-11-14T09:04:38;7.55;;;6.85;;
34248;SDS011;20508;50.834;3.160;2022-11-14T09:07:04;8.20;;;7.40;;
34248;SDS011;20508;50.834;3.160;2022-11-14T09:09:30;7.38;;;6.60;;
34248;SDS011;20508;50.834;3.160;2022-11-14T09:11:56;7.07;;;6.47;;
34248;SDS011;20508;50.834;3.160;2022-11-14T09:14:22;7.35;;;6.65;;
34248;SDS011;20508;50.834;3.160;2022-11-14T09:16:48;6.78;;;6.15;;
34248;SDS011;20508;50.834;3.160;2022-11-14T09:19:14;7.18;;;6.57;;
34248;SDS011;20508;50.834;3.160;2022-11-14T09:21:39;6.82;;;6.10;;
34248;SDS011;20508;50.834;3.160;2022-11-14T09:24:06;7.13;;;6.53;;
34248;SDS011;20508;50.834;3.160;2022-11-14T09:26:31;6.68;;;6.10;;
34248;SDS011;20508;50.834;3.160;2022-11-14T09:28:57;6.78;;;6.28;;
34248;SDS011;20508;50.834;3.160;2022-11-14T09:31:23;6.30;;;5.80;;
34248;SDS011;20508;50.834;3.160;2022-11-14T09:33:50;7.07;;;6.47;;
34248;SDS011;20508;50.834;3.160;2022-11-14T09:36:16;6.70;;;6.10;;
34248;SDS011;20508;50.834;3.160;2022-11-14T09:38:42;6.20;;;5.70;;
34248;SDS011;20508;50.834;3.160;2022-11-14T09:44:15;6.68;;;6.18;;
34248;SDS011;20508;50.834;3.160;2022-11-14T09:47:02;6.95;;;6.25;;
34248;SDS011;20508;50.834;3.160;2022-11-14T09:49:34;6.43;;;5.93;;
34248;SDS011;20508;50.834;3.160;2022-11-14T09:54:41;6.45;;;5.93;;
34248;SDS011;20508;50.834;3.160;2022-11-14T09:57:17;5.95;;;5.45;;
34248;SDS011;20508;50.834;3.160;2022-11-14T09:59:45;5.97;;;5.47;;
34248;SDS011;20508;50.834;3.160;2022-11-14T10:04:47;6.25;;;5.75;;
34248;SDS011;20508;50.834;3.160;2022-11-14T10:07:38;5.90;;;5.40;;
34248;SDS011;20508;50.834;3.160;2022-11-14T10:10:31;5.32;;;4.93;;
34248;SDS011;20508;50.834;3.160;2022-11-14T10:13:23;5.80;;;5.15;;
34248;SDS011;20508;50.834;3.160;2022-11-14T10:16:09;6.35;;;5.78;;
34248;SDS011;20508;50.834;3.160;2022-11-14T10:27:04;5.85;;;5.35;;
34248;SDS011;20508;50.834;3.160;2022-11-14T10:32:45;6.38;;;5.88;;
34248;SDS011;20508;50.834;3.160;2022-11-14T10:40:49;7.22;;;6.60;;
34248;SDS011;20508;50.834;3.160;2022-11-14T10:43:27;6.13;;;5.63;;
34248;SDS011;20508;50.834;3.160;2022-11-14T10:48:30;5.90;;;5.40;;
34248;SDS011;20508;50.834;3.160;2022-11-14T10:51:02;6.07;;;5.43;;
34248;SDS011;20508;50.834;3.160;2022-11-14T10:56:18;5.93;;;5.43;;
34248;SDS011;20508;50.834;3.160;2022-11-14T10:58:45;5.88;;;5.38;;
34248;SDS011;20508;50.834;3.160;2022-11-14T11:04:28;6.03;;;5.53;;
34248;SDS011;20508;50.834;3.160;2022-11-14T11:09:34;7.32;;;6.72;;
34248;SDS011;20508;50.834;3.160;2022-11-14T11:12:23;7.80;;;7.15;;
34248;SDS011;20508;50.834;3.160;2022-11-14T11:17:37;7.95;;;7.25;;
34248;SDS011;20508;50.834;3.160;2022-11-14T11:20:23;8.02;;;7.43;;
34248;SDS011;20508;50.834;3.160;2022-11-14T11:23:00;7.97;;;7.28;;
34248;SDS011;20508;50.834;3.160;2022-11-14T11:25:28;7.57;;;6.97;;
34248;SDS011;20508;50.834;3.160;2022-11-14T11:28:12;7.47;;;6.95;;
34248;SDS011;20508;50.834;3.160;2022-11-14T11:30:53;7.25;;;6.72;;
34248;SDS011;20508;50.834;3.160;2022-11-14T11:33:21;7.95;;;7.25;;
34248;SDS011;20508;50.834;3.160;2022-11-14T11:35:50;7.35;;;6.78;;
34248;SDS011;20508;50.834;3.160;2022-11-14T11:38:20;7.90;;;7.30;;
34248;SDS011;20508;50.834;3.160;2022-11-14T11:40:49;7.40;;;6.80;;
34248;SDS011;20508;50.834;3.160;2022-11-14T11:46:02;6.72;;;6.22;;
34248;SDS011;20508;50.834;3.160;2022-11-14T11:48:36;7.60;;;7.00;;
34248;SDS011;20508;50.834;3.160;2022-11-14T11:51:03;7.50;;;6.90;;
34248;SDS011;20508;50.834;3.160;2022-11-14T11:53:35;7.25;;;6.65;;
34248;SDS011;20508;50.834;3.160;2022-11-14T11:56:16;8.45;;;7.63;;
34248;SDS011;20508;50.834;3.160;2022-11-14T11:58:50;8.35;;;7.65;;
34248;SDS011;20508;50.834;3.160;2022-11-14T12:01:21;8.38;;;7.68;;
34248;SDS011;20508;50.834;3.160;2022-11-14T12:03:48;8.23;;;7.63;;
34248;SDS011;20508;50.834;3.160;2022-11-14T12:06:19;8.00;;;7.40;;
34248;SDS011;20508;50.834;3.160;2022-11-14T12:11:40;8.63;;;7.93;;
34248;SDS011;20508;50.834;3.160;2022-11-14T12:14:15;8.55;;;7.80;;
34248;SDS011;20508;50.834;3.160;2022-11-14T12:25:37;7.70;;;7.10;;
34248;SDS011;20508;50.834;3.160;2022-11-14T12:30:56;7.93;;;7.32;;
34248;SDS011;20508;50.834;3.160;2022-11-14T12:33:25;8.23;;;7.53;;
34248;SDS011;20508;50.834;3.160;2022-11-14T12:35:58;7.63;;;7.03;;
34248;SDS011;20508;50.834;3.160;2022-11-14T12:38:34;8.10;;;7.40;;
34248;SDS011;20508;50.834;3.160;2022-11-14T12:41:34;8.25;;;7.60;;
34248;SDS011;20508;50.834;3.160;2022-11-14T12:47:13;7.68;;;7.05;;
34248;SDS011;20508;50.834;3.160;2022-11-14T12:57:52;7.70;;;7.00;;
34248;SDS011;20508;50.834;3.160;2022-11-14T13:00:23;8.05;;;7.35;;
34248;SDS011;20508;50.834;3.160;2022-11-14T13:03:00;7.88;;;7.28;;
34248;SDS011;20508;50.834;3.160;2022-11-14T13:08:41;7.97;;;7.38;;
34248;SDS011;20508;50.834;3.160;2022-11-14T13:14:17;7.47;;;6.88;;
34248;SDS011;20508;50.834;3.160;2022-11-14T13:17:10;7.18;;;6.57;;
34248;SDS011;20508;50.834;3.160;2022-11-14T13:20:01;7.68;;;7.07;;
34248;SDS011;20508;50.834;3.160;2022-11-14T13:31:25;7.05;;;6.55;;
34248;SDS011;20508;50.834;3.160;2022-11-14T13:39:50;6.93;;;6.32;;
34248;SDS011;20508;50.834;3.160;2022-11-14T13:42:45;6.90;;;6.30;;
34248;SDS011;20508;50.834;3.160;2022-11-14T13:45:33;6.55;;;6.05;;
34248;SDS011;20508;50.834;3.160;2022-11-14T13:51:02;7.47;;;6.88;;
34248;SDS011;20508;50.834;3.160;2022-11-14T13:53:31;7.40;;;6.80;;
34248;SDS011;20508;50.834;3.160;2022-11-14T13:59:33;7.47;;;6.88;;
34248;SDS011;20508;50.834;3.160;2022-11-14T14:10:24;7.43;;;6.82;;
34248;SDS011;20508;50.834;3.160;2022-11-14T14:21:31;7.32;;;6.72;;
34248;SDS011;20508;50.834;3.160;2022-11-14T14:32:18;7.53;;;6.93;;
34248;SDS011;20508;50.834;3.160;2022-11-14T14:34:44;7.30;;;6.70;;
34248;SDS011;20508;50.834;3.160;2022-11-14T14:37:18;8.50;;;7.70;;
34248;SDS011;20508;50.834;3.160;2022-11-14T14:40:02;7.28;;;6.68;;
34248;SDS011;20508;50.834;3.160;2022-11-14T14:42:35;7.40;;;6.90;;
34248;SDS011;20508;50.834;3.160;2022-11-14T14:45:06;7.53;;;6.93;;
34248;SDS011;20508;50.834;3.160;2022-11-14T14:47:40;7.43;;;6.80;;
34248;SDS011;20508;50.834;3.160;2022-11-14T14:50:18;7.40;;;6.80;;
34248;SDS011;20508;50.834;3.160;2022-11-14T14:52:55;6.80;;;6.20;;
34248;SDS011;20508;50.834;3.160;2022-11-14T14:55:23;7.50;;;6.90;;
34248;SDS011;20508;50.834;3.160;2022-11-14T14:57:54;7.72;;;7.03;;
34248;SDS011;20508;50.834;3.160;2022-11-14T15:00:24;7.60;;;7.00;;
34248;SDS011;20508;50.834;3.160;2022-11-14T15:02:54;7.93;;;7.30;;
34248;SDS011;20508;50.834;3.160;2022-11-14T15:05:24;7.70;;;7.07;;
34248;SDS011;20508;50.834;3.160;2022-11-14T15:07:52;8.20;;;7.40;;
34248;SDS011;20508;50.834;3.160;2022-11-14T15:10:22;7.68;;;6.97;;
34248;SDS011;20508;50.834;3.160;2022-11-14T15:12:50;7.72;;;7.05;;
34248;SDS011;20508;50.834;3.160;2022-11-14T15:15:18;8.20;;;7.50;;
34248;SDS011;20508;50.834;3.160;2022-11-14T15:17:47;7.28;;;6.68;;
34248;SDS011;20508;50.834;3.160;2022-11-14T15:20:24;7.53;;;6.93;;
34248;SDS011;20508;50.834;3.160;2022-11-14T15:23:03;7.47;;;6.88;;
34248;SDS011;20508;50.834;3.160;2022-11-14T15:25:31;7.70;;;7.10;;
34248;SDS011;20508;50.834;3.160;2022-11-14T15:27:57;7.75;;;7.15;;
34248;SDS011;20508;50.834;3.160;2022-11-14T15:30:25;8.40;;;7.70;;
34248;SDS011;20508;50.834;3.160;2022-11-14T15:33:02;7.78;;;7.18;;
34248;SDS011;20508;50.834;3.160;2022-11-14T15:35:31;8.10;;;7.43;;
34248;SDS011;20508;50.834;3.160;2022-11-14T15:38:04;8.40;;;7.68;;
34248;SDS011;20508;50.834;3.160;2022-11-14T15:40:43;8.52;;;7.72;;
34248;SDS011;20508;50.834;3.160;2022-11-14T15:43:55;8.02;;;7.32;;
34248;SDS011;20508;50.834;3.160;2022-11-14T15:49:08;7.95;;;7.25;;
34248;SDS011;20508;50.834;3.160;2022-11-14T15:51:43;8.02;;;7.32;;
34248;SDS011;20508;50.834;3.160;2022-11-14T15:54:20;7.72;;;7.03;;
34248;SDS011;20508;50.834;3.160;2022-11-14T15:56:47;7.82;;;7.22;;
34248;SDS011;20508;50.834;3.160;2022-11-14T15:59:13;6.90;;;6.30;;
34248;SDS011;20508;50.834;3.160;2022-11-14T16:01:39;8.13;;;7.43;;
34248;SDS011;20508;50.834;3.160;2022-11-14T16:04:12;7.72;;;7.10;;
34248;SDS011;20508;50.834;3.160;2022-11-14T16:06:43;7.93;;;7.25;;
34248;SDS011;20508;50.834;3.160;2022-11-14T16:09:13;7.60;;;6.90;;
34248;SDS011;20508;50.834;3.160;2022-11-14T16:11:42;7.95;;;7.25;;
34248;SDS011;20508;50.834;3.160;2022-11-14T16:14:08;7.47;;;6.88;;
34248;SDS011;20508;50.834;3.160;2022-11-14T16:16:34;7.43;;;6.82;;
34248;SDS011;20508;50.834;3.160;2022-11-14T16:19:00;7.30;;;6.70;;
34248;SDS011;20508;50.834;3.160;2022-11-14T16:21:26;7.13;;;6.45;;
34248;SDS011;20508;50.834;3.160;2022-11-14T16:23:52;7.05;;;6.55;;
34248;SDS011;20508;50.834;3.160;2022-11-14T16:26:18;6.97;;;6.38;;
34248;SDS011;20508;50.834;3.160;2022-11-14T16:28:44;7.05;;;6.45;;
34248;SDS011;20508;50.834;3.160;2022-11-14T16:31:10;7.32;;;6.72;;
34248;SDS011;20508;50.834;3.160;2022-11-14T16:33:36;7.50;;;6.82;;
34248;SDS011;20508;50.834;3.160;2022-11-14T16:36:02;7.10;;;6.50;;
34248;SDS011;20508;50.834;3.160;2022-11-14T16:38:28;7.05;;;6.45;;
34248;SDS011;20508;50.834;3.160;2022-11-14T16:40:54;7.03;;;6.40;;
34248;SDS011;20508;50.834;3.160;2022-11-14T16:43:19;7.13;;;6.43;;
34248;SDS011;20508;50.834;3.160;2022-11-14T16:45:45;6.82;;;6.22;;
34248;SDS011;20508;50.834;3.160;2022-11-14T16:48:11;7.30;;;6.60;;
34248;SDS011;20508;50.834;3.160;2022-11-14T16:50:37;7.50;;;6.90;;